createdAt,value
2023-05-11T00:00:37.199Z,94638.72
2023-05-11T00:09:11.384Z,94526.23
2023-05-11T00:17:34.269Z,94429.73
2023-05-11T00:25:57.126Z,94346.06
2023-05-11T00:34:20.053Z,94278.83
2023-05-11T00:42:42.905Z,94235.61
2023-05-11T00:51:07.103Z,94203.05
2023-05-11T00:59:30.389Z,94177.19
2023-05-11T01:08:05.640Z,94163.45
2023-05-11T01:16:34.551Z,94165.77
2023-05-11T01:25:32.323Z,94180.56
2023-05-11T01:34:02.469Z,94200.33
2023-05-11T01:42:32.125Z,94214.23
2023-05-11T01:51:00.551Z,94214.91
2023-05-11T01:59:26.188Z,94200.52
2023-05-11T02:07:55.665Z,94198.88
2023-05-11T02:16:19.851Z,94192.36
2023-05-11T02:24:44.595Z,94175.65
2023-05-11T02:33:09.368Z,94143.88
2023-05-11T02:41:34.207Z,94113.30
2023-05-11T02:50:00.528Z,94059.77
2023-05-11T02:58:24.259Z,94005.30
2023-05-11T03:06:54.078Z,93955.79
2023-05-11T03:15:17.910Z,93916.80
2023-05-11T03:23:42.174Z,93898.27
2023-05-11T03:32:06.041Z,93883.95
2023-05-11T03:40:33.510Z,94126.45
2023-05-11T03:48:58.307Z,94758.71
2023-05-11T03:57:26.223Z,95291.16
2023-05-11T04:05:49.129Z,95690.06
2023-05-11T04:14:12.368Z,95872.98
2023-05-11T04:22:35.297Z,95650.60
2023-05-11T04:30:58.825Z,95512.36
2023-05-11T04:39:21.761Z,95471.03
2023-05-11T04:47:44.935Z,95516.67
2023-05-11T04:56:08.175Z,95575.77
2023-05-11T05:04:31.599Z,95647.70
2023-05-11T05:12:55.918Z,95744.52
2023-05-11T05:21:18.928Z,95805.71
2023-05-11T05:29:42.004Z,95913.27
2023-05-11T05:38:05.160Z,95978.89
2023-05-11T05:46:28.438Z,96081.69
2023-05-11T05:54:51.495Z,96325.87
2023-05-11T06:03:14.740Z,96535.69
2023-05-11T06:11:38.261Z,96697.21
2023-05-11T06:20:01.515Z,96868.17
2023-05-11T06:28:25.763Z,97044.31
2023-05-11T06:36:52.923Z,97225.01
2023-05-11T06:45:17.655Z,97351.85
2023-05-11T06:53:40.770Z,97443.70
2023-05-11T07:02:06.234Z,97567.71
2023-05-11T07:10:29.260Z,97692.41
2023-05-11T07:18:52.310Z,97780.80
2023-05-11T07:27:15.279Z,97818.81
2023-05-11T07:35:38.307Z,97840.19
2023-05-11T07:44:01.966Z,97876.60
2023-05-11T07:52:24.866Z,98035.21
2023-05-11T08:00:47.928Z,98167.59
2023-05-11T08:09:11.147Z,98231.87
2023-05-11T08:17:34.350Z,98216.36
2023-05-11T08:25:57.787Z,98318.30
2023-05-11T08:34:20.668Z,98357.23
2023-05-11T08:42:46.773Z,98318.63
2023-05-11T08:51:09.992Z,98315.76
2023-05-11T08:59:34.433Z,98379.69
2023-05-11T09:08:02.508Z,98485.48
2023-05-11T09:16:36.091Z,98529.77
2023-05-11T09:25:02.027Z,98510.58
2023-05-11T09:33:26.269Z,98545.95
2023-05-11T09:41:49.975Z,98587.48
2023-05-11T09:50:18.677Z,98515.10
2023-05-11T09:58:57.623Z,98502.30
2023-05-11T10:07:35.013Z,98595.42
2023-05-11T10:16:03.399Z,98668.15
2023-05-11T10:24:27.301Z,98725.14
2023-05-11T10:32:51.629Z,98765.73
2023-05-11T10:41:40.028Z,98925.06
2023-05-11T10:50:18.391Z,98874.12
2023-05-11T10:59:21.976Z,98879.24
2023-05-11T11:08:07.282Z,98891.81
2023-05-11T11:16:30.977Z,98906.48
2023-05-11T11:24:54.012Z,98796.97
2023-05-11T11:33:16.896Z,98773.80
2023-05-11T11:41:41.258Z,98924.06
2023-05-11T11:50:13.349Z,98986.28
2023-05-11T11:58:45.203Z,99025.54
2023-05-11T12:07:09.974Z,99055.04
2023-05-11T12:15:33.184Z,98940.13
2023-05-11T12:23:58.274Z,98894.30
2023-05-11T12:32:31.576Z,98844.05
2023-05-11T12:40:54.510Z,98784.30
2023-05-11T12:49:24.835Z,98750.48
2023-05-11T12:57:50.486Z,98789.65
2023-05-11T13:06:13.715Z,98812.92
2023-05-11T13:14:36.950Z,98742.05
2023-05-11T13:23:04.570Z,98702.11
2023-05-11T13:31:27.749Z,98729.09
2023-05-11T13:39:50.772Z,98832.95
2023-05-11T13:48:13.729Z,98878.30
2023-05-11T13:56:36.793Z,98781.30
2023-05-11T14:04:59.869Z,98760.20
2023-05-11T14:13:24.025Z,98810.20
2023-05-11T14:21:47.238Z,98806.73
2023-05-11T14:30:10.570Z,98800.75
2023-05-11T14:38:33.743Z,98794.00
2023-05-11T14:46:56.758Z,98730.21
2023-05-11T14:55:20.146Z,98703.06
2023-05-11T15:03:43.345Z,98656.81
2023-05-11T15:12:06.506Z,98631.60
2023-05-11T15:20:29.762Z,98631.48
2023-05-11T15:28:52.647Z,98618.52
2023-05-11T15:37:15.942Z,98591.57
2023-05-11T15:45:39.039Z,98573.80
2023-05-11T15:54:01.930Z,98540.30
2023-05-11T16:02:25.012Z,98484.64
2023-05-11T16:10:47.934Z,98441.32
2023-05-11T16:19:10.921Z,98407.48
2023-05-11T16:27:33.820Z,98354.39
2023-05-11T16:35:57.292Z,98301.11
2023-05-11T16:44:20.138Z,98250.93
2023-05-11T16:52:43.272Z,98194.83
2023-05-11T17:01:06.308Z,98131.94
2023-05-11T17:09:29.788Z,98059.30
2023-05-11T17:17:53.347Z,97988.52
2023-05-11T17:26:16.779Z,97900.30
2023-05-11T17:34:39.686Z,97792.36
2023-05-11T17:43:03.043Z,97669.84
2023-05-11T17:51:26.087Z,97536.73
2023-05-11T17:59:49.929Z,97402.08
2023-05-11T18:08:14.193Z,97262.84
2023-05-11T18:16:37.291Z,97113.20
2023-05-11T18:25:00.483Z,96966.94
2023-05-11T18:33:23.887Z,96849.23
2023-05-11T18:41:47.470Z,96735.77
2023-05-11T18:50:11.201Z,96628.77
2023-05-11T18:58:34.037Z,96534.27
2023-05-11T19:06:56.911Z,96433.96
2023-05-11T19:15:19.928Z,96341.00
2023-05-11T19:23:42.743Z,96255.08
2023-05-11T19:32:06.217Z,96162.40
2023-05-11T19:48:56.160Z,96001.34
2023-05-11T19:57:19.940Z,95922.39
2023-05-11T20:05:43.564Z,95842.67
2023-05-11T20:14:06.748Z,95766.26
2023-05-11T20:22:31.097Z,95715.19
2023-05-11T20:30:56.371Z,95700.04
2023-05-11T20:39:20.887Z,95704.56
2023-05-11T20:47:44.174Z,95702.49
2023-05-11T20:56:10.138Z,95699.31
2023-05-11T21:04:34.003Z,95716.41
2023-05-11T21:12:56.917Z,95747.54
2023-05-11T21:21:19.858Z,95779.46
2023-05-11T21:29:42.704Z,95784.13
2023-05-11T21:38:05.857Z,95785.61
2023-05-11T21:46:28.864Z,95782.14
2023-05-11T21:54:51.842Z,95758.63
2023-05-11T22:03:14.751Z,95742.13
2023-05-11T22:11:38.956Z,95702.27
2023-05-11T22:20:02.468Z,95662.58
2023-05-11T22:28:25.357Z,95622.80
2023-05-11T22:36:48.220Z,95584.52
2023-05-11T22:45:11.287Z,95546.20
2023-05-11T22:53:34.254Z,95511.15
2023-05-11T23:02:01.692Z,95463.48
2023-05-11T23:10:24.734Z,95423.73
2023-05-11T23:18:47.735Z,95373.57
2023-05-11T23:27:10.725Z,95326.11
2023-05-11T23:35:33.960Z,95287.11
2023-05-11T23:43:56.822Z,95235.77
2023-05-11T23:52:19.859Z,95183.80
